Am Tubarao — A8ZA9 — position and weather

sailwx.info

Track history (hours):
 
Tides and Currents Weather Stations Pressure Air Temp Water Temp Dewpoint Dewpoint Depression Visibility Wind Speed Wind Dir Waves Ship Positions

Am Tubarao

Last reported at 2016-Aug-29 02:21 UTC. Time now 2016-Sep-28 20:31 UTC.
Position N 36°46' W 075°16'.
Warning: this ship's position is 30 days out of date.

Length 230 m; draft 15.1 m.

Type: Cargo ship. MMSI: 636015171.

Date/timePositionNaut miles runAvg speedWind from/ knotsBaromVisibWave heightAir tempDewpointWater temp
2016-Aug-29 02:21N 36°46' W 075°16'10 9.2
2016-Aug-29 01:16N 36°53' W 075°25'6 8.8
2016-Aug-29 00:33N 36°56' W 075°32'15 7.6
2016-Aug-28 22:31N 36°51' W 075°50'9 9.0
2016-Aug-28 21:32N 36°56' W 075°59'9 8.8
2016-Aug-28 20:29N 36°59' W 076°10'8 8.0
2016-Aug-28 19:27N 36°58' W 076°20'3 0.1
2016-Aug-27 12:08N 36°57' W 076°24'610.1
2016-Aug-27 11:32N 37°00' W 076°18'1111.1
2016-Aug-27 10:33N 36°58' W 076°04'6 5.7
2016-Aug-27 09:30N 37°04' W 076°05'  
2016-Aug-21 10:27N 37°14' W 076°05'  
Track history (hours):
 
Tides and Currents Weather Stations Pressure Air Temp Water Temp Dewpoint Dewpoint Depression Visibility Wind Speed Wind Dir Waves Ship Positions

Am Tubarao

Last reported at 2016-Aug-29 02:21 UTC. Time now 2016-Sep-28 20:31 UTC.
Position N 36°46' W 075°16'.
Warning: this ship's position is 30 days out of date.

Length 230 m; draft 15.1 m.

Type: Cargo ship. MMSI: 636015171.

Date/timePositionNaut miles runAvg speedWind from/ knotsBaromVisibWave heightAir tempDewpointWater temp
2016-Aug-29 02:21N 36°46' W 075°16'10 9.2
2016-Aug-29 01:16N 36°53' W 075°25'6 8.8
2016-Aug-29 00:33N 36°56' W 075°32'15 7.6
2016-Aug-28 22:31N 36°51' W 075°50'9 9.0
2016-Aug-28 21:32N 36°56' W 075°59'9 8.8
2016-Aug-28 20:29N 36°59' W 076°10'8 8.0
2016-Aug-28 19:27N 36°58' W 076°20'3 0.1
2016-Aug-27 12:08N 36°57' W 076°24'610.1
2016-Aug-27 11:32N 37°00' W 076°18'1111.1
2016-Aug-27 10:33N 36°58' W 076°04'6 5.7
2016-Aug-27 09:30N 37°04' W 076°05'  
2016-Aug-21 10:27N 37°14' W 076°05'  

Dump ship's entire track history